sensor_id;sensor_type;location;lat;lon;timestamp;temperature;humidity
15969;DHT22;8085;53.472;9.794;2023-02-18T00:00:26;7.00;94.60
15969;DHT22;8085;53.472;9.794;2023-02-18T00:02:53;6.90;95.90
15969;DHT22;8085;53.472;9.794;2023-02-18T00:05:20;7.00;93.10
15969;DHT22;8085;53.472;9.794;2023-02-18T00:07:48;6.90;94.40
15969;DHT22;8085;53.472;9.794;2023-02-18T00:10:15;6.90;94.30
15969;DHT22;8085;53.472;9.794;2023-02-18T00:12:43;7.00;91.00
15969;DHT22;8085;53.472;9.794;2023-02-18T00:15:10;7.00;88.80
15969;DHT22;8085;53.472;9.794;2023-02-18T00:17:37;7.00;91.20
15969;DHT22;8085;53.472;9.794;2023-02-18T00:20:05;6.90;94.10
15969;DHT22;8085;53.472;9.794;2023-02-18T00:22:32;6.80;95.80
15969;DHT22;8085;53.472;9.794;2023-02-18T00:25:00;6.80;97.80
15969;DHT22;8085;53.472;9.794;2023-02-18T00:27:27;6.80;96.20
15969;DHT22;8085;53.472;9.794;2023-02-18T00:29:54;6.70;97.20
15969;DHT22;8085;53.472;9.794;2023-02-18T00:32:21;6.70;98.00
15969;DHT22;8085;53.472;9.794;2023-02-18T00:34:48;6.60;99.90
15969;DHT22;8085;53.472;9.794;2023-02-18T00:37:14;6.50;99.90
15969;DHT22;8085;53.472;9.794;2023-02-18T00:39:41;6.50;99.90
15969;DHT22;8085;53.472;9.794;2023-02-18T00:42:10;6.50;99.90
15969;DHT22;8085;53.472;9.794;2023-02-18T00:44:37;6.50;99.90
15969;DHT22;8085;53.472;9.794;2023-02-18T00:47:04;6.40;99.90
15969;DHT22;8085;53.472;9.794;2023-02-18T00:49:31;6.40;99.90
15969;DHT22;8085;53.472;9.794;2023-02-18T00:51:57;6.30;99.90
15969;DHT22;8085;53.472;9.794;2023-02-18T00:54:24;6.30;99.90
15969;DHT22;8085;53.472;9.794;2023-02-18T00:56:51;6.30;99.90
15969;DHT22;8085;53.472;9.794;2023-02-18T00:59:19;6.20;99.90
15969;DHT22;8085;53.472;9.794;2023-02-18T01:01:46;6.20;99.90
15969;DHT22;8085;53.472;9.794;2023-02-18T01:04:13;6.10;99.90
15969;DHT22;8085;53.472;9.794;2023-02-18T01:06:40;6.00;99.90
15969;DHT22;8085;53.472;9.794;2023-02-18T01:09:07;6.00;99.90
15969;DHT22;8085;53.472;9.794;2023-02-18T01:11:34;6.00;99.90
15969;DHT22;8085;53.472;9.794;2023-02-18T01:14:02;6.00;99.90
15969;DHT22;8085;53.472;9.794;2023-02-18T01:16:30;5.90;99.90
15969;DHT22;8085;53.472;9.794;2023-02-18T01:18:57;5.90;99.90
15969;DHT22;8085;53.472;9.794;2023-02-18T01:21:24;5.80;99.90
15969;DHT22;8085;53.472;9.794;2023-02-18T01:23:51;5.80;99.90
15969;DHT22;8085;53.472;9.794;2023-02-18T01:26:18;5.80;99.90
15969;DHT22;8085;53.472;9.794;2023-02-18T01:28:44;5.80;99.90
15969;DHT22;8085;53.472;9.794;2023-02-18T01:31:12;5.80;99.90
15969;DHT22;8085;53.472;9.794;2023-02-18T01:33:41;5.80;99.90
15969;DHT22;8085;53.472;9.794;2023-02-18T01:36:09;5.80;99.90
15969;DHT22;8085;53.472;9.794;2023-02-18T01:38:36;5.70;99.90
15969;DHT22;8085;53.472;9.794;2023-02-18T01:41:04;5.70;99.90
15969;DHT22;8085;53.472;9.794;2023-02-18T01:43:31;5.70;99.90
15969;DHT22;8085;53.472;9.794;2023-02-18T01:46:06;5.70;99.90
15969;DHT22;8085;53.472;9.794;2023-02-18T01:48:36;5.60;99.90
15969;DHT22;8085;53.472;9.794;2023-02-18T01:51:10;5.60;99.90
15969;DHT22;8085;53.472;9.794;2023-02-18T01:53:42;5.60;99.90
15969;DHT22;8085;53.472;9.794;2023-02-18T01:56:15;5.60;99.90
15969;DHT22;8085;53.472;9.794;2023-02-18T01:58:43;5.60;99.90
15969;DHT22;8085;53.472;9.794;2023-02-18T02:01:10;5.60;99.90
15969;DHT22;8085;53.472;9.794;2023-02-18T02:03:37;5.60;99.90
15969;DHT22;8085;53.472;9.794;2023-02-18T02:06:11;5.70;99.90
15969;DHT22;8085;53.472;9.794;2023-02-18T02:08:39;5.60;99.90
15969;DHT22;8085;53.472;9.794;2023-02-18T02:11:11;5.70;99.90
15969;DHT22;8085;53.472;9.794;2023-02-18T02:16:38;5.70;99.90
15969;DHT22;8085;53.472;9.794;2023-02-18T02:19:28;5.60;99.90
15969;DHT22;8085;53.472;9.794;2023-02-18T02:22:20;5.70;99.90
15969;DHT22;8085;53.472;9.794;2023-02-18T02:25:18;5.70;99.90
15969;DHT22;8085;53.472;9.794;2023-02-18T02:30:54;5.80;99.90
15969;DHT22;8085;53.472;9.794;2023-02-18T02:33:50;5.80;99.90
15969;DHT22;8085;53.472;9.794;2023-02-18T02:36:28;5.80;99.90
15969;DHT22;8085;53.472;9.794;2023-02-18T02:39:01;5.80;99.90
15969;DHT22;8085;53.472;9.794;2023-02-18T02:41:40;5.80;99.90
15969;DHT22;8085;53.472;9.794;2023-02-18T02:44:17;5.80;99.90
15969;DHT22;8085;53.472;9.794;2023-02-18T02:46:47;5.80;99.90
15969;DHT22;8085;53.472;9.794;2023-02-18T02:49:23;5.80;99.90
15969;DHT22;8085;53.472;9.794;2023-02-18T02:52:00;5.80;99.90
15969;DHT22;8085;53.472;9.794;2023-02-18T02:54:29;5.90;99.90
15969;DHT22;8085;53.472;9.794;2023-02-18T02:57:36;5.90;99.90
15969;DHT22;8085;53.472;9.794;2023-02-18T02:59:59;5.90;99.90
15969;DHT22;8085;53.472;9.794;2023-02-18T03:02:34;6.00;99.90
15969;DHT22;8085;53.472;9.794;2023-02-18T03:05:14;6.00;99.90
15969;DHT22;8085;53.472;9.794;2023-02-18T03:08:00;6.10;99.90
15969;DHT22;8085;53.472;9.794;2023-02-18T03:10:46;6.10;99.90
15969;DHT22;8085;53.472;9.794;2023-02-18T03:13:22;6.10;99.90
15969;DHT22;8085;53.472;9.794;2023-02-18T03:15:55;6.10;99.90
15969;DHT22;8085;53.472;9.794;2023-02-18T03:18:28;6.20;99.90
15969;DHT22;8085;53.472;9.794;2023-02-18T03:21:03;6.20;99.90
15969;DHT22;8085;53.472;9.794;2023-02-18T03:23:35;6.20;99.90
15969;DHT22;8085;53.472;9.794;2023-02-18T03:26:05;6.20;99.90
15969;DHT22;8085;53.472;9.794;2023-02-18T03:28:34;6.20;99.90
15969;DHT22;8085;53.472;9.794;2023-02-18T03:31:06;6.20;99.90
15969;DHT22;8085;53.472;9.794;2023-02-18T03:33:36;6.20;99.90
15969;DHT22;8085;53.472;9.794;2023-02-18T03:36:07;6.20;99.90
15969;DHT22;8085;53.472;9.794;2023-02-18T03:38:37;6.20;99.90
15969;DHT22;8085;53.472;9.794;2023-02-18T03:41:05;6.30;99.90
15969;DHT22;8085;53.472;9.794;2023-02-18T03:43:31;6.30;99.90
15969;DHT22;8085;53.472;9.794;2023-02-18T03:45:59;6.20;99.90
15969;DHT22;8085;53.472;9.794;2023-02-18T03:48:27;6.20;99.90
15969;DHT22;8085;53.472;9.794;2023-02-18T03:50:54;6.30;99.90
15969;DHT22;8085;53.472;9.794;2023-02-18T03:53:21;6.30;99.90
15969;DHT22;8085;53.472;9.794;2023-02-18T03:55:48;6.30;99.90
15969;DHT22;8085;53.472;9.794;2023-02-18T03:58:15;6.30;99.90
15969;DHT22;8085;53.472;9.794;2023-02-18T04:00:42;6.20;99.90
15969;DHT22;8085;53.472;9.794;2023-02-18T04:03:08;6.20;99.90
15969;DHT22;8085;53.472;9.794;2023-02-18T04:05:37;6.20;99.90
15969;DHT22;8085;53.472;9.794;2023-02-18T04:08:04;6.20;99.90
15969;DHT22;8085;53.472;9.794;2023-02-18T04:10:31;6.20;99.90
15969;DHT22;8085;53.472;9.794;2023-02-18T04:12:58;6.10;99.90
15969;DHT22;8085;53.472;9.794;2023-02-18T04:15:24;6.10;99.90
15969;DHT22;8085;53.472;9.794;2023-02-18T04:17:51;6.00;99.90
15969;DHT22;8085;53.472;9.794;2023-02-18T04:20:18;6.00;99.90
15969;DHT22;8085;53.472;9.794;2023-02-18T04:22:48;6.00;99.90
15969;DHT22;8085;53.472;9.794;2023-02-18T04:25:15;6.00;99.90
15969;DHT22;8085;53.472;9.794;2023-02-18T04:27:42;6.00;99.90
15969;DHT22;8085;53.472;9.794;2023-02-18T04:30:10;6.00;99.90
15969;DHT22;8085;53.472;9.794;2023-02-18T04:32:36;5.90;99.90
15969;DHT22;8085;53.472;9.794;2023-02-18T04:35:04;6.00;99.90
15969;DHT22;8085;53.472;9.794;2023-02-18T04:37:31;6.00;99.90
15969;DHT22;8085;53.472;9.794;2023-02-18T04:39:59;6.00;99.90
15969;DHT22;8085;53.472;9.794;2023-02-18T04:42:26;6.00;99.90
15969;DHT22;8085;53.472;9.794;2023-02-18T04:44:52;6.00;99.90
15969;DHT22;8085;53.472;9.794;2023-02-18T04:47:19;6.00;99.90
15969;DHT22;8085;53.472;9.794;2023-02-18T04:49:46;5.90;99.90
15969;DHT22;8085;53.472;9.794;2023-02-18T04:52:13;6.00;99.90
15969;DHT22;8085;53.472;9.794;2023-02-18T04:54:40;5.90;99.90
15969;DHT22;8085;53.472;9.794;2023-02-18T04:57:08;5.90;99.90
15969;DHT22;8085;53.472;9.794;2023-02-18T04:59:35;5.90;99.90
15969;DHT22;8085;53.472;9.794;2023-02-18T05:02:02;5.90;99.90
15969;DHT22;8085;53.472;9.794;2023-02-18T05:04:29;5.90;99.90
15969;DHT22;8085;53.472;9.794;2023-02-18T05:06:56;5.90;99.90
15969;DHT22;8085;53.472;9.794;2023-02-18T05:09:23;5.90;99.90
15969;DHT22;8085;53.472;9.794;2023-02-18T05:11:50;5.90;99.90
15969;DHT22;8085;53.472;9.794;2023-02-18T05:14:18;5.90;99.90
15969;DHT22;8085;53.472;9.794;2023-02-18T05:16:45;5.90;99.90
15969;DHT22;8085;53.472;9.794;2023-02-18T05:19:13;5.90;99.90
15969;DHT22;8085;53.472;9.794;2023-02-18T05:21:40;5.80;99.90
15969;DHT22;8085;53.472;9.794;2023-02-18T05:24:08;5.80;99.90
15969;DHT22;8085;53.472;9.794;2023-02-18T05:26:35;5.80;99.90
15969;DHT22;8085;53.472;9.794;2023-02-18T05:29:02;5.80;99.90
15969;DHT22;8085;53.472;9.794;2023-02-18T05:31:30;5.70;99.90
15969;DHT22;8085;53.472;9.794;2023-02-18T05:33:57;5.70;99.90
15969;DHT22;8085;53.472;9.794;2023-02-18T05:36:24;5.70;99.90
15969;DHT22;8085;53.472;9.794;2023-02-18T05:38:50;5.70;99.90
15969;DHT22;8085;53.472;9.794;2023-02-18T05:41:18;5.70;99.90
15969;DHT22;8085;53.472;9.794;2023-02-18T05:43:45;5.80;99.90
15969;DHT22;8085;53.472;9.794;2023-02-18T05:46:30;5.90;99.90
15969;DHT22;8085;53.472;9.794;2023-02-18T05:48:57;5.80;99.90
15969;DHT22;8085;53.472;9.794;2023-02-18T05:51:24;5.80;99.90
15969;DHT22;8085;53.472;9.794;2023-02-18T05:53:51;5.80;99.90
15969;DHT22;8085;53.472;9.794;2023-02-18T05:56:18;5.80;99.90
15969;DHT22;8085;53.472;9.794;2023-02-18T05:58:45;5.70;99.90
15969;DHT22;8085;53.472;9.794;2023-02-18T06:01:12;5.70;99.90
15969;DHT22;8085;53.472;9.794;2023-02-18T06:03:40;5.70;99.90
15969;DHT22;8085;53.472;9.794;2023-02-18T06:06:07;5.60;99.90
15969;DHT22;8085;53.472;9.794;2023-02-18T06:08:34;5.60;99.90
15969;DHT22;8085;53.472;9.794;2023-02-18T06:11:01;5.60;99.90
15969;DHT22;8085;53.472;9.794;2023-02-18T06:13:27;5.60;99.90
15969;DHT22;8085;53.472;9.794;2023-02-18T06:15:54;5.50;99.90
15969;DHT22;8085;53.472;9.794;2023-02-18T06:18:21;5.50;99.90
15969;DHT22;8085;53.472;9.794;2023-02-18T06:20:49;5.50;99.90
15969;DHT22;8085;53.472;9.794;2023-02-18T06:23:16;5.50;99.90
15969;DHT22;8085;53.472;9.794;2023-02-18T06:25:43;5.50;99.90
15969;DHT22;8085;53.472;9.794;2023-02-18T06:28:10;5.40;99.90
15969;DHT22;8085;53.472;9.794;2023-02-18T06:30:36;5.40;99.90
15969;DHT22;8085;53.472;9.794;2023-02-18T06:33:03;5.40;99.90
15969;DHT22;8085;53.472;9.794;2023-02-18T06:35:31;5.40;99.90
15969;DHT22;8085;53.472;9.794;2023-02-18T06:37:59;5.40;99.90
15969;DHT22;8085;53.472;9.794;2023-02-18T06:40:26;5.40;99.90
15969;DHT22;8085;53.472;9.794;2023-02-18T06:42:53;5.40;99.90
15969;DHT22;8085;53.472;9.794;2023-02-18T06:45:20;5.40;99.90
15969;DHT22;8085;53.472;9.794;2023-02-18T06:47:47;5.40;99.90
15969;DHT22;8085;53.472;9.794;2023-02-18T06:50:14;5.40;99.90
15969;DHT22;8085;53.472;9.794;2023-02-18T06:52:41;5.40;99.90
15969;DHT22;8085;53.472;9.794;2023-02-18T06:55:10;5.40;99.90
15969;DHT22;8085;53.472;9.794;2023-02-18T06:57:36;5.40;99.90
15969;DHT22;8085;53.472;9.794;2023-02-18T07:00:04;5.40;99.90
15969;DHT22;8085;53.472;9.794;2023-02-18T07:02:31;5.40;99.90
15969;DHT22;8085;53.472;9.794;2023-02-18T07:04:58;5.40;99.90
15969;DHT22;8085;53.472;9.794;2023-02-18T07:07:25;5.40;99.90
15969;DHT22;8085;53.472;9.794;2023-02-18T07:09:51;5.40;99.90
15969;DHT22;8085;53.472;9.794;2023-02-18T07:12:20;5.40;99.90
15969;DHT22;8085;53.472;9.794;2023-02-18T07:14:46;5.40;99.90
15969;DHT22;8085;53.472;9.794;2023-02-18T07:17:13;5.40;99.90
15969;DHT22;8085;53.472;9.794;2023-02-18T07:19:40;5.40;99.90
15969;DHT22;8085;53.472;9.794;2023-02-18T07:22:07;5.40;99.90
15969;DHT22;8085;53.472;9.794;2023-02-18T07:24:33;5.40;99.90
15969;DHT22;8085;53.472;9.794;2023-02-18T07:27:00;5.40;99.90
15969;DHT22;8085;53.472;9.794;2023-02-18T07:29:28;5.50;99.90
15969;DHT22;8085;53.472;9.794;2023-02-18T07:31:55;5.50;99.90
15969;DHT22;8085;53.472;9.794;2023-02-18T07:34:22;5.50;99.90
15969;DHT22;8085;53.472;9.794;2023-02-18T07:36:49;5.50;99.90
15969;DHT22;8085;53.472;9.794;2023-02-18T07:39:16;5.50;99.90
15969;DHT22;8085;53.472;9.794;2023-02-18T07:41:45;5.50;99.90
15969;DHT22;8085;53.472;9.794;2023-02-18T07:44:12;5.50;99.90
15969;DHT22;8085;53.472;9.794;2023-02-18T07:46:40;5.60;99.90
15969;DHT22;8085;53.472;9.794;2023-02-18T07:49:08;5.50;99.90
15969;DHT22;8085;53.472;9.794;2023-02-18T07:51:35;5.60;99.90
15969;DHT22;8085;53.472;9.794;2023-02-18T07:54:03;5.60;99.90
15969;DHT22;8085;53.472;9.794;2023-02-18T07:56:30;5.60;99.90
15969;DHT22;8085;53.472;9.794;2023-02-18T07:58:56;5.60;99.90
15969;DHT22;8085;53.472;9.794;2023-02-18T08:01:23;5.60;99.90
15969;DHT22;8085;53.472;9.794;2023-02-18T08:03:51;5.60;99.90
15969;DHT22;8085;53.472;9.794;2023-02-18T08:06:21;5.70;99.90
15969;DHT22;8085;53.472;9.794;2023-02-18T08:08:49;5.70;99.90
15969;DHT22;8085;53.472;9.794;2023-02-18T08:11:16;5.60;99.90
15969;DHT22;8085;53.472;9.794;2023-02-18T08:13:42;5.60;99.90
15969;DHT22;8085;53.472;9.794;2023-02-18T08:16:09;5.60;99.90
15969;DHT22;8085;53.472;9.794;2023-02-18T08:18:36;5.60;99.90
15969;DHT22;8085;53.472;9.794;2023-02-18T08:21:04;5.60;99.90
15969;DHT22;8085;53.472;9.794;2023-02-18T08:23:31;5.70;99.90
15969;DHT22;8085;53.472;9.794;2023-02-18T08:25:58;5.70;99.90
15969;DHT22;8085;53.472;9.794;2023-02-18T08:28:25;5.80;99.90
15969;DHT22;8085;53.472;9.794;2023-02-18T08:30:53;5.80;99.90
15969;DHT22;8085;53.472;9.794;2023-02-18T08:33:21;5.80;99.90
15969;DHT22;8085;53.472;9.794;2023-02-18T08:35:49;5.80;99.90
15969;DHT22;8085;53.472;9.794;2023-02-18T08:38:18;5.80;99.90
15969;DHT22;8085;53.472;9.794;2023-02-18T08:40:46;5.80;99.90
15969;DHT22;8085;53.472;9.794;2023-02-18T08:43:13;5.80;99.90
15969;DHT22;8085;53.472;9.794;2023-02-18T08:45:40;5.80;99.90
15969;DHT22;8085;53.472;9.794;2023-02-18T08:48:08;5.90;99.90
15969;DHT22;8085;53.472;9.794;2023-02-18T08:50:36;5.90;99.90
15969;DHT22;8085;53.472;9.794;2023-02-18T08:53:03;5.90;99.90
15969;DHT22;8085;53.472;9.794;2023-02-18T08:55:32;5.90;99.90
15969;DHT22;8085;53.472;9.794;2023-02-18T08:57:59;5.90;99.90
15969;DHT22;8085;53.472;9.794;2023-02-18T09:00:26;5.90;99.90
15969;DHT22;8085;53.472;9.794;2023-02-18T09:02:54;6.00;99.90
15969;DHT22;8085;53.472;9.794;2023-02-18T09:05:21;6.00;99.90
15969;DHT22;8085;53.472;9.794;2023-02-18T09:07:48;6.00;99.90
15969;DHT22;8085;53.472;9.794;2023-02-18T09:10:15;6.00;99.90
15969;DHT22;8085;53.472;9.794;2023-02-18T09:12:43;6.00;99.90
15969;DHT22;8085;53.472;9.794;2023-02-18T09:15:10;6.10;99.90
15969;DHT22;8085;53.472;9.794;2023-02-18T09:17:37;6.10;99.90
15969;DHT22;8085;53.472;9.794;2023-02-18T09:20:05;6.10;99.90
15969;DHT22;8085;53.472;9.794;2023-02-18T09:22:32;6.10;99.90
15969;DHT22;8085;53.472;9.794;2023-02-18T09:24:58;6.10;99.90
15969;DHT22;8085;53.472;9.794;2023-02-18T09:27:25;6.10;99.90
15969;DHT22;8085;53.472;9.794;2023-02-18T09:29:54;6.20;99.90
15969;DHT22;8085;53.472;9.794;2023-02-18T09:32:20;6.20;99.90
15969;DHT22;8085;53.472;9.794;2023-02-18T09:34:47;6.20;99.90
15969;DHT22;8085;53.472;9.794;2023-02-18T09:37:14;6.20;99.90
15969;DHT22;8085;53.472;9.794;2023-02-18T09:39:41;6.20;99.90
15969;DHT22;8085;53.472;9.794;2023-02-18T09:42:13;6.20;99.90
15969;DHT22;8085;53.472;9.794;2023-02-18T09:44:45;6.30;99.90
15969;DHT22;8085;53.472;9.794;2023-02-18T09:47:18;6.30;99.90
15969;DHT22;8085;53.472;9.794;2023-02-18T09:49:50;6.30;99.90
15969;DHT22;8085;53.472;9.794;2023-02-18T09:52:20;6.30;99.90
15969;DHT22;8085;53.472;9.794;2023-02-18T09:54:48;6.30;99.90
15969;DHT22;8085;53.472;9.794;2023-02-18T09:57:21;6.30;99.90
15969;DHT22;8085;53.472;9.794;2023-02-18T09:59:55;6.40;99.90
15969;DHT22;8085;53.472;9.794;2023-02-18T10:02:24;6.40;99.90
15969;DHT22;8085;53.472;9.794;2023-02-18T10:04:52;6.50;99.90
15969;DHT22;8085;53.472;9.794;2023-02-18T10:07:24;6.60;99.90
15969;DHT22;8085;53.472;9.794;2023-02-18T10:09:53;6.70;99.90
15969;DHT22;8085;53.472;9.794;2023-02-18T10:12:22;6.80;99.90
15969;DHT22;8085;53.472;9.794;2023-02-18T10:14:50;6.90;99.90
15969;DHT22;8085;53.472;9.794;2023-02-18T10:17:18;7.00;99.90
15969;DHT22;8085;53.472;9.794;2023-02-18T10:19:48;7.20;99.90
15969;DHT22;8085;53.472;9.794;2023-02-18T10:22:17;7.30;99.90
15969;DHT22;8085;53.472;9.794;2023-02-18T10:24:47;7.50;99.90
15969;DHT22;8085;53.472;9.794;2023-02-18T10:27:18;7.70;99.90
15969;DHT22;8085;53.472;9.794;2023-02-18T10:29:46;7.80;99.90
15969;DHT22;8085;53.472;9.794;2023-02-18T10:32:20;7.90;99.90
15969;DHT22;8085;53.472;9.794;2023-02-18T10:34:52;8.10;99.90
15969;DHT22;8085;53.472;9.794;2023-02-18T10:37:41;8.20;99.90
15969;DHT22;8085;53.472;9.794;2023-02-18T10:40:14;8.40;99.90
15969;DHT22;8085;53.472;9.794;2023-02-18T10:42:51;8.50;99.90
15969;DHT22;8085;53.472;9.794;2023-02-18T10:45:27;8.70;99.90
15969;DHT22;8085;53.472;9.794;2023-02-18T10:48:05;8.80;99.90
15969;DHT22;8085;53.472;9.794;2023-02-18T10:50:38;8.90;99.90
15969;DHT22;8085;53.472;9.794;2023-02-18T10:53:10;9.10;99.90
15969;DHT22;8085;53.472;9.794;2023-02-18T10:55:39;9.20;99.90
15969;DHT22;8085;53.472;9.794;2023-02-18T10:58:25;9.30;99.90
15969;DHT22;8085;53.472;9.794;2023-02-18T11:00:53;9.40;99.90
15969;DHT22;8085;53.472;9.794;2023-02-18T11:03:21;9.50;99.90
15969;DHT22;8085;53.472;9.794;2023-02-18T11:05:50;9.60;99.90
15969;DHT22;8085;53.472;9.794;2023-02-18T11:08:21;9.60;99.90
15969;DHT22;8085;53.472;9.794;2023-02-18T11:10:48;9.70;99.90
15969;DHT22;8085;53.472;9.794;2023-02-18T11:13:22;9.70;99.90
15969;DHT22;8085;53.472;9.794;2023-02-18T11:15:59;9.70;99.90
15969;DHT22;8085;53.472;9.794;2023-02-18T11:18:35;9.80;99.90
15969;DHT22;8085;53.472;9.794;2023-02-18T11:21:10;9.80;99.90
15969;DHT22;8085;53.472;9.794;2023-02-18T11:23:46;9.80;99.90
15969;DHT22;8085;53.472;9.794;2023-02-18T11:26:15;9.80;99.90
15969;DHT22;8085;53.472;9.794;2023-02-18T11:28:45;9.80;99.90
15969;DHT22;8085;53.472;9.794;2023-02-18T11:31:19;9.80;99.90
15969;DHT22;8085;53.472;9.794;2023-02-18T11:33:49;9.80;99.90
15969;DHT22;8085;53.472;9.794;2023-02-18T11:36:22;9.80;99.90
15969;DHT22;8085;53.472;9.794;2023-02-18T11:38:52;9.80;99.90
15969;DHT22;8085;53.472;9.794;2023-02-18T11:41:21;9.80;99.90
15969;DHT22;8085;53.472;9.794;2023-02-18T11:43:55;9.80;99.90
15969;DHT22;8085;53.472;9.794;2023-02-18T11:46:24;9.80;99.90
15969;DHT22;8085;53.472;9.794;2023-02-18T11:48:52;9.80;99.90
15969;DHT22;8085;53.472;9.794;2023-02-18T11:51:24;9.80;99.90
15969;DHT22;8085;53.472;9.794;2023-02-18T11:54:00;9.80;99.90
15969;DHT22;8085;53.472;9.794;2023-02-18T11:56:30;9.80;99.90
15969;DHT22;8085;53.472;9.794;2023-02-18T11:58:58;9.70;99.90
15969;DHT22;8085;53.472;9.794;2023-02-18T12:01:38;9.60;99.90
15969;DHT22;8085;53.472;9.794;2023-02-18T12:04:11;9.60;99.90
15969;DHT22;8085;53.472;9.794;2023-02-18T12:06:44;9.70;99.90
15969;DHT22;8085;53.472;9.794;2023-02-18T12:09:18;9.70;99.90
15969;DHT22;8085;53.472;9.794;2023-02-18T12:11:49;9.60;99.90
15969;DHT22;8085;53.472;9.794;2023-02-18T12:14:18;9.60;99.90
15969;DHT22;8085;53.472;9.794;2023-02-18T12:16:59;9.60;99.90
15969;DHT22;8085;53.472;9.794;2023-02-18T12:19:49;9.60;99.90
15969;DHT22;8085;53.472;9.794;2023-02-18T12:22:22;9.60;99.90
15969;DHT22;8085;53.472;9.794;2023-02-18T12:25:07;9.60;99.90
15969;DHT22;8085;53.472;9.794;2023-02-18T12:27:38;9.60;99.90
15969;DHT22;8085;53.472;9.794;2023-02-18T12:30:36;9.60;99.90
15969;DHT22;8085;53.472;9.794;2023-02-18T12:33:15;9.50;99.90
15969;DHT22;8085;53.472;9.794;2023-02-18T12:35:55;9.50;99.90
15969;DHT22;8085;53.472;9.794;2023-02-18T12:38:52;9.50;99.90
15969;DHT22;8085;53.472;9.794;2023-02-18T12:41:36;9.50;99.90
15969;DHT22;8085;53.472;9.794;2023-02-18T12:44:12;9.50;99.90
15969;DHT22;8085;53.472;9.794;2023-02-18T12:46:58;9.40;99.90
15969;DHT22;8085;53.472;9.794;2023-02-18T12:49:45;9.40;99.90
15969;DHT22;8085;53.472;9.794;2023-02-18T12:52:26;9.40;99.90
15969;DHT22;8085;53.472;9.794;2023-02-18T12:58:10;9.40;99.90
15969;DHT22;8085;53.472;9.794;2023-02-18T13:00:58;9.30;99.90
15969;DHT22;8085;53.472;9.794;2023-02-18T13:04:02;9.30;99.90
15969;DHT22;8085;53.472;9.794;2023-02-18T13:06:54;9.40;99.90
15969;DHT22;8085;53.472;9.794;2023-02-18T13:09:37;9.40;99.90
15969;DHT22;8085;53.472;9.794;2023-02-18T13:12:10;9.40;99.90
15969;DHT22;8085;53.472;9.794;2023-02-18T13:14:45;9.40;99.90
15969;DHT22;8085;53.472;9.794;2023-02-18T13:17:16;9.40;99.90
15969;DHT22;8085;53.472;9.794;2023-02-18T13:19:48;9.40;99.90
15969;DHT22;8085;53.472;9.794;2023-02-18T13:22:17;9.40;99.90
15969;DHT22;8085;53.472;9.794;2023-02-18T13:24:48;9.40;99.90
15969;DHT22;8085;53.472;9.794;2023-02-18T13:27:24;9.30;99.90
15969;DHT22;8085;53.472;9.794;2023-02-18T13:30:02;9.40;99.90
15969;DHT22;8085;53.472;9.794;2023-02-18T13:32:37;9.30;99.90
15969;DHT22;8085;53.472;9.794;2023-02-18T13:35:16;9.20;99.90
15969;DHT22;8085;53.472;9.794;2023-02-18T13:37:54;9.20;99.90
15969;DHT22;8085;53.472;9.794;2023-02-18T13:40:26;9.20;99.90
15969;DHT22;8085;53.472;9.794;2023-02-18T13:43:16;9.20;99.90
15969;DHT22;8085;53.472;9.794;2023-02-18T13:45:43;9.20;99.90
15969;DHT22;8085;53.472;9.794;2023-02-18T13:48:27;9.20;99.90
15969;DHT22;8085;53.472;9.794;2023-02-18T13:51:01;9.20;99.90
15969;DHT22;8085;53.472;9.794;2023-02-18T13:53:30;9.20;99.90
15969;DHT22;8085;53.472;9.794;2023-02-18T13:56:00;9.20;99.90
15969;DHT22;8085;53.472;9.794;2023-02-18T13:58:35;9.20;99.90
15969;DHT22;8085;53.472;9.794;2023-02-18T14:01:04;9.20;99.90
15969;DHT22;8085;53.472;9.794;2023-02-18T14:03:49;9.20;99.90
15969;DHT22;8085;53.472;9.794;2023-02-18T14:06:19;9.20;99.90
15969;DHT22;8085;53.472;9.794;2023-02-18T14:08:47;9.10;99.90
15969;DHT22;8085;53.472;9.794;2023-02-18T14:11:39;9.20;99.90
15969;DHT22;8085;53.472;9.794;2023-02-18T14:14:30;9.20;99.90
15969;DHT22;8085;53.472;9.794;2023-02-18T14:23:36;9.00;99.90
15969;DHT22;8085;53.472;9.794;2023-02-18T14:26:05;9.10;99.90
15969;DHT22;8085;53.472;9.794;2023-02-18T14:28:39;9.00;99.90
15969;DHT22;8085;53.472;9.794;2023-02-18T14:31:23;9.00;99.90
15969;DHT22;8085;53.472;9.794;2023-02-18T14:36:47;8.90;99.90
15969;DHT22;8085;53.472;9.794;2023-02-18T14:39:30;8.70;99.90
15969;DHT22;8085;53.472;9.794;2023-02-18T14:42:08;8.60;99.90
15969;DHT22;8085;53.472;9.794;2023-02-18T14:44:58;8.50;99.90
15969;DHT22;8085;53.472;9.794;2023-02-18T14:47:42;8.40;99.90
15969;DHT22;8085;53.472;9.794;2023-02-18T14:50:14;8.30;99.90
15969;DHT22;8085;53.472;9.794;2023-02-18T14:52:43;8.30;99.90
15969;DHT22;8085;53.472;9.794;2023-02-18T14:55:18;8.20;99.90
15969;DHT22;8085;53.472;9.794;2023-02-18T14:57:49;7.90;99.90
15969;DHT22;8085;53.472;9.794;2023-02-18T15:00:19;7.90;99.90
15969;DHT22;8085;53.472;9.794;2023-02-18T15:02:50;7.60;99.90
15969;DHT22;8085;53.472;9.794;2023-02-18T15:05:18;7.30;99.90
15969;DHT22;8085;53.472;9.794;2023-02-18T15:07:59;7.20;99.90
15969;DHT22;8085;53.472;9.794;2023-02-18T15:10:39;7.00;99.90
15969;DHT22;8085;53.472;9.794;2023-02-18T15:13:12;6.90;99.90
15969;DHT22;8085;53.472;9.794;2023-02-18T15:15:41;7.00;99.90
15969;DHT22;8085;53.472;9.794;2023-02-18T15:18:19;6.90;99.90
15969;DHT22;8085;53.472;9.794;2023-02-18T15:20:47;6.90;99.90
15969;DHT22;8085;53.472;9.794;2023-02-18T15:23:15;6.90;99.90
15969;DHT22;8085;53.472;9.794;2023-02-18T15:25:46;6.90;99.90
15969;DHT22;8085;53.472;9.794;2023-02-18T15:28:21;6.90;99.90
15969;DHT22;8085;53.472;9.794;2023-02-18T15:30:48;6.80;99.90
15969;DHT22;8085;53.472;9.794;2023-02-18T15:33:18;6.80;99.90
15969;DHT22;8085;53.472;9.794;2023-02-18T15:35:46;6.80;99.90
15969;DHT22;8085;53.472;9.794;2023-02-18T15:38:15;6.80;99.90
15969;DHT22;8085;53.472;9.794;2023-02-18T15:40:43;6.80;99.90
15969;DHT22;8085;53.472;9.794;2023-02-18T15:43:16;6.80;99.90
15969;DHT22;8085;53.472;9.794;2023-02-18T15:45:46;6.90;99.90
15969;DHT22;8085;53.472;9.794;2023-02-18T15:48:27;6.80;99.90
15969;DHT22;8085;53.472;9.794;2023-02-18T15:50:57;6.80;99.90
15969;DHT22;8085;53.472;9.794;2023-02-18T15:53:24;6.70;99.90
15969;DHT22;8085;53.472;9.794;2023-02-18T15:55:52;6.70;99.90
15969;DHT22;8085;53.472;9.794;2023-02-18T15:58:22;6.50;99.90
15969;DHT22;8085;53.472;9.794;2023-02-18T16:00:53;6.30;99.90
15969;DHT22;8085;53.472;9.794;2023-02-18T16:03:23;6.20;99.90
15969;DHT22;8085;53.472;9.794;2023-02-18T16:05:51;6.10;99.90
15969;DHT22;8085;53.472;9.794;2023-02-18T16:08:32;6.00;99.90
15969;DHT22;8085;53.472;9.794;2023-02-18T16:11:00;5.90;99.90
15969;DHT22;8085;53.472;9.794;2023-02-18T16:13:28;5.90;99.90
15969;DHT22;8085;53.472;9.794;2023-02-18T16:15:56;5.80;99.90
15969;DHT22;8085;53.472;9.794;2023-02-18T16:18:28;5.80;99.90
15969;DHT22;8085;53.472;9.794;2023-02-18T16:20:59;5.70;99.90
15969;DHT22;8085;53.472;9.794;2023-02-18T16:23:34;5.70;99.90
15969;DHT22;8085;53.472;9.794;2023-02-18T16:26:10;5.60;99.90
15969;DHT22;8085;53.472;9.794;2023-02-18T16:28:41;5.60;99.90
15969;DHT22;8085;53.472;9.794;2023-02-18T16:31:08;5.60;99.90
15969;DHT22;8085;53.472;9.794;2023-02-18T16:33:36;5.60;99.90
15969;DHT22;8085;53.472;9.794;2023-02-18T16:36:03;5.60;99.90
15969;DHT22;8085;53.472;9.794;2023-02-18T16:38:30;5.50;99.90
15969;DHT22;8085;53.472;9.794;2023-02-18T16:40:58;5.50;99.90
15969;DHT22;8085;53.472;9.794;2023-02-18T16:43:26;5.50;99.90